Aérodrome :
LOGIN :

S'inscrire | Disclaimer

   EN    FR    IT 

 










Légende :    VFR   VFR Marginal   IFR   IFR Intensif   IFR Très Intensif
Visi : 
Plafond : 
>= 8 km
>= 3000ft
5 à 8 km
1000 à 3000 ft
1500m à 5 km
500 à 1000 ft
800 à 1500m
200 à 500 ft
< 800m
< 200 ft
Symboles :   Orages  Brouillard  Fortes neiges  Fortes précipitations  Vent > 20 kt
SIGMETs :   Divers  Orages  Givrage  Turbulence  Onde Orograph.  Cendres Volcan.







- Altitude de l'aérodrome : 412 ft
- Code IATA : ORE
- Voir les cartes d'approche


LFOJ - Orleans

DERNIER METAR :
  • 231800Z AUTO 24012KT 7000 -RADZ SCT017/// BKN028/// BKN038/// ///TCU 13/12 Q1010 BECMG 22020G30KT BKN015

METARs EXPIRÉS :
  • 231730Z AUTO 23010KT 9999 -RADZ BKN016/// BKN025/// BKN036/// ///TCU 14/12 Q1010 BECMG 22020G30KT BKN015
  • 231700Z AUTO 24013KT 4700 RA BR SCT016/// BKN024/// BKN029/// ///TCU 14/12 Q1010 BECMG 9999 NSW SCT025 BKN040
  • 231630Z AUTO 22013KT 9999 BKN031/// BKN038/// BKN048/// ///TCU 15/12 Q1009 BECMG SCT025 BKN040
  • 231600Z AUTO 21016KT 9999 BKN031 OVC046 15/11 Q1009 TEMPO 22020G30KT
  • 231530Z AUTO 21016KT 9999 FEW028/// SCT045/// OVC054/// ///TCU 15/11 Q1009 TEMPO 22020G30KT BECMG SCT025 BKN040

TAF TAF LFOJ
Valide du 23 à 15h jusqu'au 24 à 15h UTC


231400Z 2315/2415 22020G30KT 9999 SCT025 BKN040
TEMPO 2315/2317 5000 -RA
TEMPO 2317/2319 26012KT
BECMG 2319/2320 BKN015
PROB30
TEMPO 2320/2322 4000 -SHRA
BECMG 2322/2323 SCT030 BKN040
TEMPO 2402/2406 5000 -RA
FM240800 23015G25KT 9999 BKN015
TEMPO 2410/2415 4000 -SHRA BKN013 BKN020TCU
Pas de NOTAMs connus pour ce terrain.



MET'MAP, la Météo Aéronautique d'un coup d'oeil ! - Copyright ORBIFLY Décembre 2007 - Disclaimer

ORBIFLY MET'MAP TEAM :

Programmation & Développement : Alexandra Zaïnal
Conception & Développement : Baudouin d'Aumeries
Co-Programmation & Développement : Marc-Olivier Méhu
Soutien technique & logistique : Manuel Goepfert

Contact : metmap@orbifly.com




SOURCES & CREDITS :

   NOAA